createdAt,value
2023-05-14T00:00:06.402Z,100.00
2023-05-14T00:02:32.981Z,100.00
2023-05-14T00:04:59.566Z,100.00
2023-05-14T00:07:27.408Z,100.00
2023-05-14T00:09:53.929Z,100.00
2023-05-14T00:12:20.449Z,100.00
2023-05-14T00:14:47.006Z,100.00
2023-05-14T00:17:13.710Z,100.00
2023-05-14T00:19:40.190Z,100.00
2023-05-14T00:22:06.677Z,100.00
2023-05-14T00:24:34.862Z,100.00
2023-05-14T00:27:01.494Z,100.00
2023-05-14T00:29:28.199Z,100.00
2023-05-14T00:31:54.824Z,100.00
2023-05-14T00:34:21.576Z,100.00
2023-05-14T00:36:48.142Z,100.00
2023-05-14T00:39:14.611Z,100.00
2023-05-14T00:41:42.597Z,100.00
2023-05-14T00:44:09.250Z,100.00
2023-05-14T00:46:35.916Z,100.00
2023-05-14T00:49:02.674Z,100.00
2023-05-14T00:51:29.565Z,100.00
2023-05-14T00:53:56.288Z,100.00
2023-05-14T00:56:23.369Z,100.00
2023-05-14T00:58:51.344Z,100.00
2023-05-14T01:01:17.876Z,100.00
2023-05-14T01:03:44.976Z,100.00
2023-05-14T01:06:17.999Z,100.00
2023-05-14T01:08:57.242Z,100.00
2023-05-14T01:11:29.007Z,100.00
2023-05-14T01:14:09.480Z,100.00
2023-05-14T01:16:40.055Z,100.00
2023-05-14T01:19:21.323Z,100.00
2023-05-14T01:21:49.134Z,100.00
2023-05-14T01:24:15.630Z,100.00
2023-05-14T01:26:42.293Z,100.00
2023-05-14T01:29:17.396Z,100.00
2023-05-14T01:31:47.060Z,100.00
2023-05-14T01:34:14.500Z,100.00
2023-05-14T01:36:42.133Z,100.00
2023-05-14T01:39:11.696Z,100.00
2023-05-14T01:41:42.616Z,100.00
2023-05-14T01:44:09.732Z,100.00
2023-05-14T01:46:36.288Z,100.00
2023-05-14T01:49:03.056Z,100.00
2023-05-14T01:51:29.736Z,100.00
2023-05-14T01:53:56.195Z,100.00
2023-05-14T01:56:24.277Z,100.00
2023-05-14T01:58:50.833Z,100.00
2023-05-14T02:01:17.436Z,100.00
2023-05-14T02:03:44.240Z,100.00
2023-05-14T02:06:10.748Z,100.00
2023-05-14T02:08:37.432Z,100.00
2023-05-14T02:11:04.086Z,100.00
2023-05-14T02:13:31.980Z,100.00
2023-05-14T02:15:58.602Z,100.00
2023-05-14T02:18:25.391Z,100.00
2023-05-14T02:20:51.888Z,100.00
2023-05-14T02:23:18.719Z,100.00
2023-05-14T02:25:46.014Z,100.00
2023-05-14T02:28:12.479Z,100.00
2023-05-14T02:30:40.434Z,100.00
2023-05-14T02:33:07.028Z,100.00
2023-05-14T02:35:33.802Z,100.00
2023-05-14T02:38:00.285Z,100.00
2023-05-14T02:40:26.947Z,100.00
2023-05-14T02:42:53.470Z,100.00
2023-05-14T02:45:20.094Z,100.00
2023-05-14T02:47:47.955Z,100.00
2023-05-14T02:50:14.623Z,100.00
2023-05-14T02:52:41.159Z,100.00
2023-05-14T02:55:08.522Z,100.00
2023-05-14T02:57:34.997Z,100.00
2023-05-14T03:00:01.528Z,100.00
2023-05-14T03:02:28.724Z,100.00
2023-05-14T03:04:57.037Z,100.00
2023-05-14T03:07:23.684Z,100.00
2023-05-14T03:09:50.307Z,100.00
2023-05-14T03:12:16.978Z,100.00
2023-05-14T03:14:43.858Z,100.00
2023-05-14T03:17:10.394Z,100.00
2023-05-14T03:19:36.950Z,100.00
2023-05-14T03:22:05.088Z,100.00
2023-05-14T03:24:31.726Z,100.00
2023-05-14T03:26:58.183Z,100.00
2023-05-14T03:29:24.730Z,100.00
2023-05-14T03:31:51.410Z,100.00
2023-05-14T03:34:17.963Z,100.00
2023-05-14T03:36:44.439Z,100.00
2023-05-14T03:39:12.423Z,100.00
2023-05-14T03:41:38.954Z,100.00
2023-05-14T03:44:05.544Z,100.00
2023-05-14T03:46:32.205Z,100.00
2023-05-14T03:48:58.804Z,100.00
2023-05-14T03:51:25.362Z,100.00
2023-05-14T03:53:51.846Z,100.00
2023-05-14T03:56:19.732Z,100.00
2023-05-14T03:58:46.232Z,100.00
2023-05-14T04:01:12.755Z,100.00
2023-05-14T04:03:39.702Z,100.00
2023-05-14T04:06:06.582Z,100.00
2023-05-14T04:08:33.231Z,100.00
2023-05-14T04:10:59.786Z,100.00
2023-05-14T04:13:27.626Z,100.00
2023-05-14T04:15:54.165Z,100.00
2023-05-14T04:18:20.741Z,100.00
2023-05-14T04:20:47.398Z,100.00
2023-05-14T04:23:13.922Z,100.00
2023-05-14T04:25:40.600Z,100.00
2023-05-14T04:28:07.081Z,100.00
2023-05-14T04:30:34.946Z,100.00
2023-05-14T04:33:01.469Z,100.00
2023-05-14T04:35:28.232Z,100.00
2023-05-14T04:37:54.799Z,100.00
2023-05-14T04:40:21.942Z,100.00
2023-05-14T04:42:48.718Z,100.00
2023-05-14T04:45:15.444Z,100.00
2023-05-14T04:47:43.319Z,100.00
2023-05-14T04:50:10.062Z,100.00
2023-05-14T04:52:36.808Z,100.00
2023-05-14T04:55:03.558Z,100.00
2023-05-14T04:57:30.039Z,100.00
2023-05-14T04:59:56.530Z,100.00
2023-05-14T05:02:23.242Z,100.00
2023-05-14T05:04:51.154Z,100.00
2023-05-14T05:07:17.663Z,100.00
2023-05-14T05:09:44.382Z,100.00
2023-05-14T05:12:10.849Z,100.00
2023-05-14T05:14:37.379Z,100.00
2023-05-14T05:17:04.240Z,100.00
2023-05-14T05:19:42.551Z,100.00
2023-05-14T05:22:12.064Z,100.00
2023-05-14T05:24:38.798Z,100.00
2023-05-14T05:27:05.889Z,100.00
2023-05-14T05:29:32.447Z,100.00
2023-05-14T05:31:59.263Z,100.00
2023-05-14T05:34:25.929Z,100.00
2023-05-14T05:36:52.455Z,100.00
2023-05-14T05:39:20.286Z,100.00
2023-05-14T05:41:46.842Z,100.00
2023-05-14T05:44:13.512Z,100.00
2023-05-14T05:46:40.182Z,100.00
2023-05-14T05:49:06.693Z,100.00
2023-05-14T05:51:33.355Z,100.00
2023-05-14T05:53:59.863Z,100.00
2023-05-14T05:56:27.727Z,100.00
2023-05-14T05:58:54.285Z,100.00
2023-05-14T06:01:20.875Z,100.00
2023-05-14T06:03:48.714Z,100.00
2023-05-14T06:06:15.369Z,100.00
2023-05-14T06:08:42.041Z,100.00
2023-05-14T06:11:08.550Z,100.00
2023-05-14T06:13:36.454Z,100.00
2023-05-14T06:16:03.003Z,100.00
2023-05-14T06:18:29.665Z,100.00
2023-05-14T06:20:56.192Z,100.00
2023-05-14T06:23:22.752Z,100.00
2023-05-14T06:25:50.767Z,100.00
2023-05-14T06:28:17.632Z,100.00
2023-05-14T06:30:45.485Z,100.00
2023-05-14T06:33:12.004Z,100.00
2023-05-14T06:35:38.552Z,99.12
2023-05-14T06:38:05.089Z,97.61
2023-05-14T06:40:31.569Z,97.69
2023-05-14T06:42:58.137Z,97.08
2023-05-14T06:45:24.654Z,98.44
2023-05-14T06:47:52.711Z,97.86
2023-05-14T06:50:19.330Z,96.71
2023-05-14T06:52:45.857Z,96.58
2023-05-14T06:55:12.390Z,95.22
2023-05-14T06:57:40.673Z,94.69
2023-05-14T07:00:08.643Z,92.69
2023-05-14T07:02:35.224Z,91.89
2023-05-14T07:05:03.250Z,90.44
2023-05-14T07:07:29.758Z,92.76
2023-05-14T07:09:56.258Z,93.39
2023-05-14T07:12:22.739Z,93.63
2023-05-14T07:14:49.407Z,93.40
2023-05-14T07:17:16.055Z,91.28
2023-05-14T07:19:42.807Z,91.77
2023-05-14T07:22:10.607Z,90.88
2023-05-14T07:24:37.138Z,92.33
2023-05-14T07:27:04.183Z,91.75
2023-05-14T07:29:30.669Z,92.14
2023-05-14T07:31:57.188Z,90.25
2023-05-14T07:34:23.690Z,89.24
2023-05-14T07:36:50.299Z,88.21
2023-05-14T07:39:18.279Z,88.31
2023-05-14T07:41:44.958Z,87.80
2023-05-14T07:44:11.431Z,85.75
2023-05-14T07:46:38.000Z,86.02
2023-05-14T07:49:04.572Z,85.55
2023-05-14T07:51:31.199Z,83.15
2023-05-14T07:53:57.731Z,85.38
2023-05-14T07:56:25.593Z,78.61
2023-05-14T07:58:52.140Z,79.08
2023-05-14T08:01:18.681Z,81.40
2023-05-14T08:03:45.295Z,80.94
2023-05-14T08:06:11.832Z,82.37
2023-05-14T08:08:38.285Z,81.45
2023-05-14T08:11:05.241Z,82.12
2023-05-14T08:13:33.089Z,83.41
2023-05-14T08:15:59.634Z,83.26
2023-05-14T08:18:26.219Z,84.14
2023-05-14T08:20:52.807Z,78.91
2023-05-14T08:23:19.357Z,77.07
2023-05-14T08:25:45.897Z,74.07
2023-05-14T08:28:12.415Z,74.80
2023-05-14T08:30:40.351Z,72.40
2023-05-14T08:33:06.906Z,72.41
2023-05-14T08:35:33.689Z,73.61
2023-05-14T08:38:00.185Z,70.82
2023-05-14T08:40:27.166Z,72.66
2023-05-14T08:42:56.306Z,71.74
2023-05-14T08:45:28.645Z,70.27
2023-05-14T08:47:58.289Z,72.00
2023-05-14T08:50:25.570Z,69.78
2023-05-14T08:52:53.008Z,70.27
2023-05-14T08:55:19.900Z,70.58
2023-05-14T08:57:46.653Z,62.90
2023-05-14T09:00:14.325Z,62.17
2023-05-14T09:02:42.053Z,58.59
2023-05-14T09:05:10.426Z,58.50
2023-05-14T09:07:37.078Z,55.53
2023-05-14T09:10:04.632Z,56.97
2023-05-14T09:12:31.333Z,54.88
2023-05-14T09:14:57.926Z,57.26
2023-05-14T09:17:26.619Z,55.81
2023-05-14T09:19:53.465Z,55.99
2023-05-14T09:22:21.889Z,54.19
2023-05-14T09:25:02.332Z,56.33
2023-05-14T09:27:30.103Z,51.22
2023-05-14T09:29:56.635Z,52.59
2023-05-14T09:32:23.110Z,49.82
2023-05-14T09:34:49.752Z,51.60
2023-05-14T09:37:16.275Z,46.90
2023-05-14T09:39:44.135Z,48.19
2023-05-14T09:42:10.617Z,51.40
2023-05-14T09:44:37.275Z,48.50
2023-05-14T09:47:04.131Z,49.16
2023-05-14T09:49:30.624Z,50.00
2023-05-14T09:51:57.080Z,46.05
2023-05-14T09:54:25.939Z,45.62
2023-05-14T09:56:55.642Z,47.86
2023-05-14T09:59:22.534Z,47.85
2023-05-14T10:01:49.780Z,48.04
2023-05-14T10:04:16.792Z,47.06
2023-05-14T10:06:48.130Z,45.28
2023-05-14T10:09:18.226Z,46.81
2023-05-14T10:11:47.994Z,42.96
2023-05-14T10:14:24.848Z,45.55
2023-05-14T10:16:52.240Z,46.53
2023-05-14T10:19:23.431Z,48.89
2023-05-14T10:21:59.656Z,46.91
2023-05-14T10:24:27.066Z,47.93
2023-05-14T10:26:53.827Z,44.77
2023-05-14T10:29:32.469Z,47.63
2023-05-14T10:31:59.017Z,47.97
2023-05-14T10:34:32.688Z,49.09
2023-05-14T10:36:59.914Z,48.46
2023-05-14T10:39:40.544Z,49.28
2023-05-14T10:42:08.338Z,50.27
2023-05-14T10:44:40.758Z,51.28
2023-05-14T10:47:07.313Z,45.92
2023-05-14T10:49:42.916Z,42.94
2023-05-14T10:52:11.701Z,44.47
2023-05-14T10:54:38.317Z,43.20
2023-05-14T10:57:11.062Z,45.97
2023-05-14T10:59:41.770Z,46.26
2023-05-14T11:02:20.414Z,45.59
2023-05-14T11:04:53.384Z,48.36
2023-05-14T11:07:24.360Z,49.09
2023-05-14T11:09:51.314Z,48.90
2023-05-14T11:12:18.381Z,45.95
2023-05-14T11:14:46.928Z,45.38
2023-05-14T11:17:13.694Z,44.22
2023-05-14T11:19:43.332Z,46.45
2023-05-14T11:22:09.930Z,41.63
2023-05-14T11:24:36.419Z,45.43
2023-05-14T11:27:02.902Z,45.26
2023-05-14T11:29:29.411Z,45.82
2023-05-14T11:31:57.401Z,43.45
2023-05-14T11:34:23.963Z,43.59
2023-05-14T11:36:50.586Z,44.46
2023-05-14T11:39:18.119Z,45.88
2023-05-14T11:41:45.024Z,46.47
2023-05-14T11:44:11.811Z,44.86
2023-05-14T11:46:38.456Z,45.74
2023-05-14T11:49:10.137Z,44.56
2023-05-14T11:51:36.589Z,45.44
2023-05-14T11:54:03.104Z,48.38
2023-05-14T11:56:29.686Z,50.58
2023-05-14T11:58:57.209Z,46.99
2023-05-14T12:01:26.361Z,47.52
2023-05-14T12:03:53.034Z,46.24
2023-05-14T12:06:20.924Z,47.01
2023-05-14T12:08:47.744Z,47.07
2023-05-14T12:11:14.428Z,48.73
2023-05-14T12:13:41.070Z,41.81
2023-05-14T12:16:07.735Z,38.19
2023-05-14T12:18:36.696Z,38.15
2023-05-14T12:21:04.460Z,41.34
2023-05-14T12:23:32.842Z,40.18
2023-05-14T12:26:01.893Z,37.83
2023-05-14T12:28:28.551Z,40.37
2023-05-14T12:30:56.689Z,40.38
2023-05-14T12:33:23.567Z,40.90
2023-05-14T12:35:50.077Z,40.28
2023-05-14T12:38:16.639Z,42.86
2023-05-14T12:40:44.544Z,44.16
2023-05-14T12:43:11.270Z,44.72
2023-05-14T12:45:37.807Z,41.59
2023-05-14T12:48:04.431Z,42.42
2023-05-14T12:50:31.048Z,40.26
2023-05-14T12:52:57.626Z,38.94
2023-05-14T12:55:24.350Z,34.62
2023-05-14T12:57:52.338Z,39.76
2023-05-14T13:00:19.372Z,37.39
2023-05-14T13:02:45.910Z,36.35
2023-05-14T13:05:12.623Z,42.08
2023-05-14T13:07:39.362Z,43.78
2023-05-14T13:10:06.948Z,41.96
2023-05-14T13:12:33.740Z,45.96
2023-05-14T13:15:01.610Z,43.96
2023-05-14T13:17:28.242Z,45.02
2023-05-14T13:19:54.819Z,45.96
2023-05-14T13:22:21.336Z,46.33
2023-05-14T13:24:47.822Z,41.76
2023-05-14T13:27:14.281Z,40.12
2023-05-14T13:29:40.749Z,42.07
2023-05-14T13:32:08.821Z,38.02
2023-05-14T13:34:35.438Z,39.70
2023-05-14T13:37:02.026Z,36.26
2023-05-14T13:39:28.629Z,41.25
2023-05-14T13:41:55.071Z,41.18
2023-05-14T13:44:21.625Z,38.84
2023-05-14T13:46:48.316Z,40.47
2023-05-14T13:49:16.369Z,39.32
2023-05-14T13:51:42.882Z,40.19
2023-05-14T13:54:09.718Z,39.99
2023-05-14T13:56:36.408Z,39.40
2023-05-14T13:59:03.175Z,36.66
2023-05-14T14:01:29.745Z,40.85
2023-05-14T14:03:56.331Z,40.12
2023-05-14T14:06:25.725Z,41.70
2023-05-14T14:08:52.166Z,41.12
2023-05-14T14:11:18.768Z,41.13
2023-05-14T14:13:46.698Z,39.89
2023-05-14T14:16:13.494Z,39.17
2023-05-14T14:18:40.120Z,37.31
2023-05-14T14:21:06.897Z,36.14
2023-05-14T14:23:34.918Z,34.89
2023-05-14T14:26:01.413Z,38.39
2023-05-14T14:28:28.085Z,38.56
2023-05-14T14:30:54.568Z,40.66
2023-05-14T14:33:21.260Z,45.07
2023-05-14T14:35:47.926Z,47.73
2023-05-14T14:38:14.592Z,48.02
2023-05-14T14:40:42.448Z,54.07
2023-05-14T14:43:09.019Z,50.78
2023-05-14T14:45:35.525Z,53.60
2023-05-14T14:48:27.478Z,48.93
2023-05-14T14:50:54.841Z,47.28
2023-05-14T14:53:22.926Z,52.70
2023-05-14T14:55:51.429Z,52.35
2023-05-14T14:58:19.268Z,50.47
2023-05-14T15:00:45.881Z,49.54
2023-05-14T15:03:12.512Z,48.81
2023-05-14T15:05:39.175Z,53.37
2023-05-14T15:08:05.751Z,52.79
2023-05-14T15:10:32.600Z,53.16
2023-05-14T15:13:00.599Z,54.46
2023-05-14T15:15:27.108Z,56.64
2023-05-14T15:17:53.616Z,59.11
2023-05-14T15:20:20.337Z,61.20
2023-05-14T15:22:47.096Z,64.79
2023-05-14T15:25:13.633Z,67.03
2023-05-14T15:27:40.189Z,68.59
2023-05-14T15:30:09.364Z,70.49
2023-05-14T15:32:36.091Z,70.61
2023-05-14T15:35:02.866Z,69.74
2023-05-14T15:37:36.221Z,71.08
2023-05-14T15:40:03.398Z,71.20
2023-05-14T15:42:30.184Z,71.50
2023-05-14T15:44:56.755Z,73.02
2023-05-14T15:47:24.877Z,74.67
2023-05-14T15:49:51.340Z,76.04
2023-05-14T15:52:18.024Z,76.40
2023-05-14T15:54:46.538Z,74.75
2023-05-14T15:57:13.108Z,76.73
2023-05-14T15:59:39.750Z,76.12
2023-05-14T16:02:06.860Z,75.69
2023-05-14T16:04:34.784Z,78.10
2023-05-14T16:07:02.281Z,78.60
2023-05-14T16:09:28.783Z,76.33
2023-05-14T16:11:55.355Z,77.35
2023-05-14T16:14:21.875Z,77.76
2023-05-14T16:16:48.563Z,76.67
2023-05-14T16:19:15.333Z,77.81
2023-05-14T16:21:43.737Z,79.52
2023-05-14T16:24:10.297Z,81.83
2023-05-14T16:26:36.801Z,81.71
2023-05-14T16:29:04.140Z,81.65
2023-05-14T16:31:30.841Z,79.89
2023-05-14T16:33:57.491Z,81.82
2023-05-14T16:36:25.410Z,81.01
2023-05-14T16:39:06.610Z,81.85
2023-05-14T16:41:34.302Z,79.80
2023-05-14T16:44:00.746Z,75.94
2023-05-14T16:46:27.501Z,74.17
2023-05-14T16:48:54.047Z,73.47
2023-05-14T16:51:20.611Z,74.67
2023-05-14T16:53:47.176Z,74.17
2023-05-14T16:56:15.055Z,74.86
2023-05-14T16:58:41.633Z,77.53
2023-05-14T17:01:09.649Z,75.49
2023-05-14T17:03:36.907Z,73.72
2023-05-14T17:06:03.758Z,70.87
2023-05-14T17:08:30.428Z,68.11
2023-05-14T17:10:56.936Z,67.68
2023-05-14T17:13:24.861Z,66.71
2023-05-14T17:15:51.500Z,65.52
2023-05-14T17:18:18.082Z,67.43
2023-05-14T17:20:44.689Z,64.81
2023-05-14T17:23:11.208Z,64.24
2023-05-14T17:25:37.753Z,61.36
2023-05-14T17:28:04.597Z,59.84
2023-05-14T17:30:32.449Z,60.12
2023-05-14T17:33:00.271Z,60.73
2023-05-14T17:35:26.834Z,60.72
2023-05-14T17:37:53.583Z,62.51
2023-05-14T17:40:20.180Z,63.96
2023-05-14T17:42:46.701Z,68.99
2023-05-14T17:45:13.556Z,70.30
2023-05-14T17:47:41.400Z,68.62
2023-05-14T17:50:09.000Z,70.37
2023-05-14T17:52:35.703Z,70.57
2023-05-14T17:55:02.391Z,71.44
2023-05-14T17:57:29.170Z,71.33
2023-05-14T17:59:55.738Z,70.25
2023-05-14T18:02:22.279Z,70.68
2023-05-14T18:04:50.132Z,71.65
2023-05-14T18:07:16.661Z,72.95
2023-05-14T18:09:43.159Z,76.48
2023-05-14T18:12:09.963Z,78.93
2023-05-14T18:14:36.577Z,82.92
2023-05-14T18:17:03.292Z,85.17
2023-05-14T18:19:29.955Z,85.38
2023-05-14T18:21:57.963Z,86.51
2023-05-14T18:24:24.560Z,86.85
2023-05-14T18:26:51.311Z,87.56
2023-05-14T18:29:17.982Z,89.44
2023-05-14T18:31:44.516Z,92.35
2023-05-14T18:34:11.166Z,94.48
2023-05-14T18:36:37.676Z,96.50
2023-05-14T18:39:05.489Z,96.24
2023-05-14T18:41:31.978Z,97.62
2023-05-14T18:43:58.469Z,97.78
2023-05-14T18:46:25.351Z,98.35
2023-05-14T18:48:51.921Z,98.46
2023-05-14T18:51:18.427Z,98.59
2023-05-14T18:53:45.099Z,99.60
2023-05-14T18:56:13.030Z,99.20
2023-05-14T18:58:39.730Z,99.64
2023-05-14T19:01:06.472Z,99.12
2023-05-14T19:03:33.184Z,98.70
2023-05-14T19:05:59.780Z,99.45
2023-05-14T19:08:26.669Z,99.93
2023-05-14T19:10:53.214Z,100.00
2023-05-14T19:13:21.345Z,100.00
2023-05-14T19:15:47.913Z,100.00
2023-05-14T19:18:14.559Z,100.00
2023-05-14T19:20:41.106Z,100.00
2023-05-14T19:23:07.642Z,100.00
2023-05-14T19:25:36.694Z,100.00
2023-05-14T19:28:03.398Z,100.00
2023-05-14T19:30:31.357Z,100.00
2023-05-14T19:32:58.136Z,100.00
2023-05-14T19:35:25.029Z,100.00
2023-05-14T19:37:51.725Z,100.00
2023-05-14T19:40:18.269Z,100.00
2023-05-14T19:42:44.783Z,100.00
2023-05-14T19:45:11.603Z,100.00
2023-05-14T19:47:39.648Z,100.00
2023-05-14T19:50:07.056Z,100.00
2023-05-14T19:52:33.716Z,100.00
2023-05-14T19:55:00.359Z,100.00
2023-05-14T19:57:26.832Z,100.00
2023-05-14T19:59:53.343Z,100.00
2023-05-14T20:02:19.897Z,100.00
2023-05-14T20:04:47.961Z,100.00
2023-05-14T20:07:15.224Z,100.00
2023-05-14T20:09:42.163Z,100.00
2023-05-14T20:12:09.418Z,100.00
2023-05-14T20:14:36.086Z,100.00
2023-05-14T20:17:02.688Z,100.00
2023-05-14T20:19:29.359Z,100.00
2023-05-14T20:21:57.265Z,100.00
2023-05-14T20:24:23.976Z,100.00
2023-05-14T20:26:50.553Z,100.00
2023-05-14T20:29:17.125Z,100.00
2023-05-14T20:31:43.602Z,100.00
2023-05-14T20:34:10.102Z,100.00
2023-05-14T20:36:36.611Z,100.00
2023-05-14T20:39:04.618Z,100.00
2023-05-14T20:41:31.051Z,100.00
2023-05-14T20:43:57.617Z,100.00
2023-05-14T20:46:24.141Z,100.00
2023-05-14T20:48:50.783Z,100.00
2023-05-14T20:51:17.283Z,100.00
2023-05-14T20:53:43.753Z,100.00
2023-05-14T20:56:11.632Z,100.00
2023-05-14T20:58:38.316Z,100.00
2023-05-14T21:01:04.898Z,100.00
2023-05-14T21:03:31.525Z,100.00
2023-05-14T21:05:58.142Z,100.00
2023-05-14T21:08:24.713Z,100.00
2023-05-14T21:10:51.291Z,100.00
2023-05-14T21:13:19.144Z,100.00
2023-05-14T21:15:45.883Z,100.00
2023-05-14T21:18:12.972Z,100.00
2023-05-14T21:20:39.829Z,100.00
2023-05-14T21:23:06.501Z,100.00
2023-05-14T21:25:33.995Z,100.00
2023-05-14T21:28:00.521Z,100.00
2023-05-14T21:30:28.546Z,100.00
2023-05-14T21:32:55.118Z,100.00
2023-05-14T21:35:21.704Z,100.00
2023-05-14T21:37:48.233Z,100.00
2023-05-14T21:40:14.825Z,100.00
2023-05-14T21:42:41.384Z,100.00
2023-05-14T21:45:08.742Z,100.00
2023-05-14T21:47:37.145Z,100.00
2023-05-14T21:50:04.966Z,100.00
2023-05-14T21:52:31.426Z,100.00
2023-05-14T21:54:57.952Z,100.00
2023-05-14T21:57:26.139Z,100.00
2023-05-14T21:59:53.650Z,100.00
2023-05-14T22:02:20.381Z,100.00
2023-05-14T22:04:48.459Z,100.00
2023-05-14T22:07:15.010Z,100.00
2023-05-14T22:09:41.554Z,100.00
2023-05-14T22:12:08.418Z,100.00
2023-05-14T22:14:34.918Z,100.00
2023-05-14T22:17:01.477Z,100.00
2023-05-14T22:19:28.379Z,100.00
2023-05-14T22:21:56.256Z,100.00
2023-05-14T22:24:22.705Z,100.00
2023-05-14T22:26:49.263Z,100.00
2023-05-14T22:29:15.961Z,100.00
2023-05-14T22:31:42.961Z,100.00
2023-05-14T22:34:09.481Z,100.00
2023-05-14T22:36:36.053Z,100.00
2023-05-14T22:39:04.263Z,100.00
2023-05-14T22:41:30.868Z,100.00
2023-05-14T22:43:57.372Z,100.00
2023-05-14T22:46:24.122Z,100.00
2023-05-14T22:48:50.646Z,100.00
2023-05-14T22:51:17.300Z,100.00
2023-05-14T22:53:43.824Z,100.00
2023-05-14T22:56:11.653Z,100.00
2023-05-14T22:58:38.144Z,100.00
2023-05-14T23:01:04.742Z,100.00
2023-05-14T23:03:31.245Z,100.00
2023-05-14T23:05:57.781Z,100.00
2023-05-14T23:08:24.344Z,100.00
2023-05-14T23:10:50.958Z,100.00
2023-05-14T23:13:18.935Z,100.00
2023-05-14T23:15:45.635Z,100.00
2023-05-14T23:18:15.380Z,100.00
2023-05-14T23:20:41.891Z,100.00
2023-05-14T23:23:08.352Z,100.00
2023-05-14T23:25:35.052Z,100.00
2023-05-14T23:28:01.589Z,100.00
2023-05-14T23:30:29.430Z,100.00
2023-05-14T23:32:55.942Z,100.00
2023-05-14T23:35:22.685Z,100.00
2023-05-14T23:37:49.755Z,100.00
2023-05-14T23:40:16.438Z,100.00
2023-05-14T23:42:43.488Z,100.00
2023-05-14T23:45:11.088Z,100.00
2023-05-14T23:47:39.115Z,100.00
2023-05-14T23:50:06.502Z,100.00
2023-05-14T23:52:33.013Z,100.00
2023-05-14T23:55:00.213Z,100.00
2023-05-14T23:57:26.890Z,100.00
2023-05-14T23:59:53.432Z,100.00
